Time;durP1;ratioP1;P1;durP2;ratioP2;P2;SDS_P1;SDS_P2;PMS_P1;PMS_P2;Temp;Humidity;BMP_temperature;BMP_pressure;BME280_temperature;BME280_humidity;BME280_pressure;Samples;Min_cycle;Max_cycle;Signal;HPM_P1;HPM_P2
2021/05/19 00:01:15;;;;;;;;;;;7.80;99.90;;;;;;5091560;28;19915;-72
2021/05/19 00:03:40;;;;;;;;;;;7.80;99.90;;;;;;5091444;28;19996;-72
2021/05/19 00:06:06;;;;;;;;;;;7.80;99.90;;;;;;5090706;28;19908;-72
2021/05/19 00:08:31;;;;;;;;;;;7.80;99.90;;;;;;5091107;28;19969;-71
2021/05/19 00:10:57;;;;;;;;;;;7.80;99.90;;;;;;5091409;28;19958;-72
2021/05/19 00:13:26;;;;;;;;;;;7.80;99.90;;;;;;5086882;28;20364;-72
2021/05/19 00:15:52;;;;;;;;;;;7.80;99.90;;;;;;5090364;28;19965;-72
2021/05/19 00:18:17;;;;;;;;;;;7.80;99.90;;;;;;5091262;28;19908;-72
2021/05/19 00:20:43;;;;;;;;;;;7.80;99.90;;;;;;5091242;28;19914;-72
2021/05/19 00:23:08;;;;;;;;;;;7.80;99.90;;;;;;5090990;28;20426;-72
2021/05/19 00:25:34;;;;;;;;;;;7.80;99.90;;;;;;5090878;28;19908;-72
2021/05/19 00:27:59;;;;;;;;;;;7.80;99.90;;;;;;5091043;28;19951;-72
2021/05/19 00:30:25;;;;;;;;;;;7.80;99.90;;;;;;5090024;28;19908;-72
2021/05/19 00:32:50;;;;;;;;;;;7.90;99.90;;;;;;5090947;28;19908;-72
2021/05/19 00:35:15;;;;;;;;;;;7.90;99.90;;;;;;5091213;28;19968;-72
2021/05/19 00:37:41;;;;;;;;;;;8.00;99.90;;;;;;5089802;28;20384;-72
2021/05/19 00:40:07;;;;;;;;;;;8.00;99.90;;;;;;5091178;28;19915;-72
2021/05/19 00:42:33;;;;;;;;;;;8.10;99.90;;;;;;5086734;28;19923;-72
2021/05/19 00:45:03;;;;;;;;;;;8.10;99.90;;;;;;5090726;28;19955;-72
2021/05/19 00:47:29;;;;;;;;;;;8.10;99.90;;;;;;5091671;28;19908;-72
2021/05/19 00:49:55;;;;;;;;;;;8.10;99.90;;;;;;5095046;28;19986;-72
2021/05/19 00:52:20;;;;;;;;;;;8.10;99.90;;;;;;5095222;28;19912;-72
2021/05/19 00:54:46;;;;;;;;;;;8.20;99.90;;;;;;5094461;28;19908;-70
2021/05/19 00:57:11;;;;;;;;;;;8.20;99.90;;;;;;5093756;28;20315;-72
2021/05/19 00:59:37;;;;;;;;;;;8.20;99.90;;;;;;5095270;28;19916;-72
2021/05/19 01:02:02;;;;;;;;;;;8.20;99.90;;;;;;5095013;28;19912;-72
2021/05/19 01:04:28;;;;;;;;;;;8.20;99.90;;;;;;5093499;28;19908;-72
2021/05/19 01:07:00;;;;;;;;;;;8.20;99.90;;;;;;5093801;28;19908;-72
2021/05/19 01:09:35;;;;;;;;;;;8.20;99.90;;;;;;5094273;28;19918;-73
2021/05/19 01:12:04;;;;;;;;;;;8.20;99.90;;;;;;5092306;28;19915;-71
2021/05/19 01:14:31;;;;;;;;;;;8.20;99.90;;;;;;5091596;28;19955;-72
2021/05/19 01:16:57;;;;;;;;;;;8.20;99.90;;;;;;5093422;28;19908;-72
2021/05/19 01:19:25;;;;;;;;;;;8.20;99.90;;;;;;5093120;28;20422;-71
2021/05/19 01:21:51;;;;;;;;;;;8.20;99.90;;;;;;5094310;28;19957;-72
2021/05/19 01:24:17;;;;;;;;;;;8.20;99.90;;;;;;5094272;28;20330;-72
2021/05/19 01:26:43;;;;;;;;;;;8.20;99.90;;;;;;5093372;28;20006;-72
2021/05/19 01:29:08;;;;;;;;;;;8.20;99.90;;;;;;5094233;28;19992;-72
2021/05/19 01:31:34;;;;;;;;;;;8.20;99.90;;;;;;5094235;28;19908;-72
2021/05/19 01:33:59;;;;;;;;;;;8.10;99.90;;;;;;5094293;28;19923;-72
2021/05/19 01:36:25;;;;;;;;;;;8.10;99.90;;;;;;5093139;28;19959;-72
2021/05/19 01:38:51;;;;;;;;;;;8.00;99.90;;;;;;5093600;28;19916;-72
2021/05/19 01:41:16;;;;;;;;;;;8.00;99.90;;;;;;5093889;28;20029;-72
2021/05/19 01:43:42;;;;;;;;;;;8.00;99.90;;;;;;5089260;28;20270;-72
2021/05/19 01:46:08;;;;;;;;;;;8.00;99.90;;;;;;5092803;28;19909;-72
2021/05/19 01:48:34;;;;;;;;;;;8.00;99.90;;;;;;5091899;28;20284;-70
2021/05/19 01:51:00;;;;;;;;;;;8.00;99.90;;;;;;5092246;28;20387;-72
2021/05/19 01:53:26;;;;;;;;;;;8.00;99.90;;;;;;5093382;28;19908;-72
2021/05/19 01:55:52;;;;;;;;;;;8.00;99.90;;;;;;5089039;28;19912;-72
2021/05/19 01:58:18;;;;;;;;;;;8.00;99.90;;;;;;5093657;28;19961;-72
2021/05/19 02:00:44;;;;;;;;;;;8.00;99.90;;;;;;5093507;28;19908;-72
2021/05/19 02:03:09;;;;;;;;;;;8.00;99.90;;;;;;5093446;28;20346;-72
2021/05/19 02:05:35;;;;;;;;;;;8.00;99.90;;;;;;5092865;28;20257;-72
2021/05/19 02:08:03;;;;;;;;;;;8.10;99.90;;;;;;5092749;28;19961;-72
2021/05/19 02:10:28;;;;;;;;;;;8.00;99.90;;;;;;5093440;28;19908;-72
2021/05/19 02:12:56;;;;;;;;;;;8.10;99.90;;;;;;5088897;28;19915;-72
2021/05/19 02:15:22;;;;;;;;;;;8.10;99.90;;;;;;5092931;28;19908;-72
2021/05/19 02:17:47;;;;;;;;;;;8.10;99.90;;;;;;5092041;28;19919;-73
2021/05/19 02:20:14;;;;;;;;;;;8.10;99.90;;;;;;5093131;28;20369;-72
2021/05/19 02:22:40;;;;;;;;;;;8.10;99.90;;;;;;5092866;28;20289;-71
2021/05/19 02:25:06;;;;;;;;;;;8.10;99.90;;;;;;5093063;28;19914;-72
2021/05/19 02:27:32;;;;;;;;;;;8.10;99.90;;;;;;5092207;28;19908;-72
2021/05/19 02:29:57;;;;;;;;;;;8.10;99.90;;;;;;5092844;28;20327;-72
2021/05/19 02:32:23;;;;;;;;;;;8.10;99.90;;;;;;5091699;28;19912;-72
2021/05/19 02:34:49;;;;;;;;;;;8.10;99.90;;;;;;5091250;28;19915;-72
2021/05/19 02:37:14;;;;;;;;;;;8.10;99.90;;;;;;5091747;28;20420;-72
2021/05/19 02:39:40;;;;;;;;;;;8.10;99.90;;;;;;5091188;28;20007;-72
2021/05/19 02:42:05;;;;;;;;;;;8.10;99.90;;;;;;5088282;28;19916;-72
2021/05/19 02:44:31;;;;;;;;;;;8.10;99.90;;;;;;5091161;28;20266;-72
2021/05/19 02:46:56;;;;;;;;;;;8.10;99.90;;;;;;5091657;28;20011;-72
2021/05/19 02:49:22;;;;;;;;;;;8.10;99.90;;;;;;5092470;28;20361;-72
2021/05/19 02:51:47;;;;;;;;;;;8.00;99.90;;;;;;5092743;28;19912;-72
2021/05/19 02:54:13;;;;;;;;;;;8.00;99.90;;;;;;5092182;28;19983;-72
2021/05/19 02:56:39;;;;;;;;;;;8.10;99.90;;;;;;5091535;28;20054;-72
2021/05/19 02:59:04;;;;;;;;;;;8.10;99.90;;;;;;5092353;28;19915;-72
2021/05/19 03:01:30;;;;;;;;;;;8.20;99.90;;;;;;5092317;28;19927;-72
2021/05/19 03:03:55;;;;;;;;;;;8.20;99.90;;;;;;5092124;28;19912;-72
2021/05/19 03:06:23;;;;;;;;;;;8.20;99.90;;;;;;5091329;28;19977;-70
2021/05/19 03:08:48;;;;;;;;;;;8.10;99.90;;;;;;5091911;28;20270;-72
2021/05/19 03:11:14;;;;;;;;;;;8.10;99.90;;;;;;5091925;28;19908;-72
2021/05/19 03:13:39;;;;;;;;;;;8.10;99.90;;;;;;5087595;28;19912;-72
2021/05/19 03:16:05;;;;;;;;;;;8.10;99.90;;;;;;5090823;28;20036;-72
2021/05/19 03:18:30;;;;;;;;;;;8.10;99.90;;;;;;5091856;28;20434;-72
2021/05/19 03:20:56;;;;;;;;;;;8.20;99.90;;;;;;5092171;28;19999;-72
2021/05/19 03:23:22;;;;;;;;;;;8.20;99.90;;;;;;5091690;28;20394;-71
2021/05/19 03:25:47;;;;;;;;;;;8.20;99.90;;;;;;5090995;28;19908;-72
2021/05/19 03:28:13;;;;;;;;;;;8.10;99.90;;;;;;5091682;28;20391;-72
2021/05/19 03:30:39;;;;;;;;;;;8.10;99.90;;;;;;5091918;28;19908;-72
2021/05/19 03:33:04;;;;;;;;;;;8.10;99.90;;;;;;5091719;28;20364;-72
2021/05/19 03:35:30;;;;;;;;;;;8.10;99.90;;;;;;5091700;28;19908;-72
2021/05/19 03:37:55;;;;;;;;;;;8.10;99.90;;;;;;5090564;28;19920;-72
2021/05/19 03:40:21;;;;;;;;;;;8.00;99.90;;;;;;5091616;28;19912;-72
2021/05/19 03:42:47;;;;;;;;;;;8.00;99.90;;;;;;5087212;28;19912;-72
2021/05/19 03:45:14;;;;;;;;;;;8.00;99.90;;;;;;5091390;28;20279;-71
2021/05/19 03:47:40;;;;;;;;;;;8.00;99.90;;;;;;5089104;28;19919;-71
2021/05/19 03:50:06;;;;;;;;;;;8.00;99.90;;;;;;5090302;28;20360;-72
2021/05/19 03:52:32;;;;;;;;;;;7.90;99.90;;;;;;5091364;28;20291;-70
2021/05/19 03:54:58;;;;;;;;;;;7.90;99.90;;;;;;5091061;28;19987;-71
2021/05/19 03:57:23;;;;;;;;;;;7.90;99.90;;;;;;5089132;28;19908;-72
2021/05/19 03:59:49;;;;;;;;;;;7.90;99.90;;;;;;5091477;28;20485;-72
2021/05/19 04:02:14;;;;;;;;;;;7.90;99.90;;;;;;5091111;28;19912;-71
2021/05/19 04:04:40;;;;;;;;;;;7.90;99.90;;;;;;5091044;28;20377;-72
2021/05/19 04:07:05;;;;;;;;;;;8.00;99.90;;;;;;5090850;28;20011;-71
2021/05/19 04:09:31;;;;;;;;;;;8.00;99.90;;;;;;5091271;28;19983;-71
2021/05/19 04:11:56;;;;;;;;;;;8.00;99.90;;;;;;5089468;28;19961;-70
2021/05/19 04:14:22;;;;;;;;;;;7.90;99.90;;;;;;5088403;28;20007;-72
2021/05/19 04:16:47;;;;;;;;;;;7.90;99.90;;;;;;5088839;28;19908;-73
2021/05/19 04:19:13;;;;;;;;;;;7.90;99.90;;;;;;5091496;28;20003;-72
2021/05/19 04:21:39;;;;;;;;;;;7.90;99.90;;;;;;5089165;28;19956;-70
2021/05/19 04:24:04;;;;;;;;;;;7.90;99.90;;;;;;5090879;28;20002;-72
2021/05/19 04:26:30;;;;;;;;;;;7.90;99.90;;;;;;5089923;28;19992;-72
2021/05/19 04:28:55;;;;;;;;;;;7.90;99.90;;;;;;5090970;28;20053;-72
2021/05/19 04:31:21;;;;;;;;;;;7.90;99.90;;;;;;5090944;28;19909;-72
2021/05/19 04:33:46;;;;;;;;;;;8.00;99.90;;;;;;5090960;28;19916;-72
2021/05/19 04:36:12;;;;;;;;;;;8.00;99.90;;;;;;5089993;28;19912;-72
2021/05/19 04:38:37;;;;;;;;;;;8.00;99.90;;;;;;5090588;28;19923;-72
2021/05/19 04:41:03;;;;;;;;;;;8.00;99.90;;;;;;5090823;28;19912;-72
2021/05/19 04:43:29;;;;;;;;;;;8.00;99.90;;;;;;5086439;28;19963;-72
2021/05/19 04:45:54;;;;;;;;;;;8.00;99.90;;;;;;5089817;28;19912;-72
2021/05/19 04:48:20;;;;;;;;;;;8.10;99.90;;;;;;5090890;28;19915;-72
2021/05/19 04:50:45;;;;;;;;;;;8.10;99.90;;;;;;5090799;28;19908;-72
2021/05/19 04:53:11;;;;;;;;;;;8.10;99.90;;;;;;5090551;28;20309;-72
2021/05/19 04:55:38;;;;;;;;;;;8.20;99.90;;;;;;5090096;28;20419;-72
2021/05/19 04:58:03;;;;;;;;;;;8.20;99.90;;;;;;5090824;28;19908;-72
2021/05/19 05:00:31;;;;;;;;;;;8.20;99.90;;;;;;5090787;28;20172;-72
2021/05/19 05:02:56;;;;;;;;;;;8.30;99.90;;;;;;5090668;28;19912;-72
2021/05/19 05:05:22;;;;;;;;;;;8.30;99.90;;;;;;5090612;28;20280;-72
2021/05/19 05:07:47;;;;;;;;;;;8.30;99.90;;;;;;5089739;28;19908;-72
2021/05/19 05:10:13;;;;;;;;;;;8.40;99.90;;;;;;5090351;28;19930;-72
2021/05/19 05:12:39;;;;;;;;;;;8.50;99.90;;;;;;5086356;28;19908;-72
2021/05/19 05:15:05;;;;;;;;;;;8.50;99.90;;;;;;5090091;28;19961;-72
2021/05/19 05:17:31;;;;;;;;;;;8.60;99.90;;;;;;5089529;28;20335;-72
2021/05/19 05:19:57;;;;;;;;;;;8.60;99.90;;;;;;5089332;28;19908;-72
2021/05/19 05:22:22;;;;;;;;;;;8.70;99.90;;;;;;5090501;28;19919;-71
2021/05/19 05:24:47;;;;;;;;;;;8.70;99.90;;;;;;5090202;28;20448;-72
2021/05/19 05:27:13;;;;;;;;;;;8.80;99.90;;;;;;5089621;28;19916;-72
2021/05/19 05:29:40;;;;;;;;;;;8.80;99.90;;;;;;5090393;28;19934;-72
2021/05/19 05:32:06;;;;;;;;;;;8.80;99.90;;;;;;5089146;28;19955;-72
2021/05/19 05:34:32;;;;;;;;;;;8.90;99.90;;;;;;5093493;28;19908;-72
2021/05/19 05:36:57;;;;;;;;;;;9.00;99.90;;;;;;5091621;28;19915;-72
2021/05/19 05:39:23;;;;;;;;;;;9.10;99.90;;;;;;5093517;28;20298;-71
2021/05/19 05:41:48;;;;;;;;;;;9.10;99.90;;;;;;5093471;28;20054;-72
2021/05/19 05:44:14;;;;;;;;;;;9.20;99.90;;;;;;5105464;28;19907;-72
2021/05/19 05:46:39;;;;;;;;;;;9.30;99.90;;;;;;5113225;28;19912;-72
2021/05/19 05:49:06;;;;;;;;;;;9.40;99.90;;;;;;5114120;28;19912;-70
2021/05/19 05:51:32;;;;;;;;;;;9.40;99.90;;;;;;5114164;28;19908;-72
2021/05/19 05:53:57;;;;;;;;;;;9.50;99.90;;;;;;5113844;28;19968;-72
2021/05/19 05:56:23;;;;;;;;;;;9.50;99.90;;;;;;5111769;28;19915;-72
2021/05/19 05:58:48;;;;;;;;;;;9.50;99.90;;;;;;5114515;28;19998;-72
2021/05/19 06:01:14;;;;;;;;;;;9.50;99.90;;;;;;5113957;28;20372;-72
2021/05/19 06:03:40;;;;;;;;;;;9.50;99.90;;;;;;5113720;28;19922;-72
2021/05/19 06:06:05;;;;;;;;;;;9.60;99.90;;;;;;5112973;28;19908;-71
2021/05/19 06:08:31;;;;;;;;;;;9.60;99.90;;;;;;5113525;28;19908;-72
2021/05/19 06:10:56;;;;;;;;;;;9.50;99.90;;;;;;5113845;28;19908;-72
2021/05/19 06:13:22;;;;;;;;;;;9.60;99.90;;;;;;5095175;28;19912;-72
2021/05/19 06:15:48;;;;;;;;;;;9.80;99.90;;;;;;5092069;28;19919;-72
2021/05/19 06:18:14;;;;;;;;;;;10.00;99.90;;;;;;5093235;28;19908;-72
2021/05/19 06:20:39;;;;;;;;;;;10.30;99.90;;;;;;5093371;28;19912;-72
2021/05/19 06:23:05;;;;;;;;;;;10.70;99.90;;;;;;5093244;28;19966;-71
2021/05/19 06:25:30;;;;;;;;;;;11.00;99.90;;;;;;5092626;28;19908;-70
2021/05/19 06:27:56;;;;;;;;;;;11.10;99.90;;;;;;5092194;28;19956;-71
2021/05/19 06:30:21;;;;;;;;;;;11.00;99.90;;;;;;5091668;28;20657;-72
2021/05/19 06:32:47;;;;;;;;;;;10.90;99.90;;;;;;5093114;28;19939;-72
2021/05/19 06:35:13;;;;;;;;;;;10.90;99.90;;;;;;5092377;28;20377;-72
2021/05/19 06:37:38;;;;;;;;;;;10.80;99.90;;;;;;5091290;28;19965;-72
2021/05/19 06:40:04;;;;;;;;;;;10.70;99.90;;;;;;5092523;28;19912;-72
2021/05/19 06:42:30;;;;;;;;;;;10.70;99.90;;;;;;5088318;28;19920;-70
2021/05/19 06:44:55;;;;;;;;;;;10.70;99.90;;;;;;5090203;28;20046;-72
2021/05/19 06:47:21;;;;;;;;;;;10.80;99.90;;;;;;5091685;28;19915;-72
2021/05/19 06:49:47;;;;;;;;;;;11.10;99.90;;;;;;5092054;28;20003;-72
2021/05/19 06:52:12;;;;;;;;;;;11.50;99.90;;;;;;5091234;28;19912;-71
2021/05/19 06:54:38;;;;;;;;;;;11.80;99.90;;;;;;5092142;28;19935;-72
2021/05/19 06:57:03;;;;;;;;;;;11.90;99.90;;;;;;5091591;28;19908;-72
2021/05/19 06:59:29;;;;;;;;;;;11.90;99.90;;;;;;5092183;28;19934;-72
2021/05/19 07:01:54;;;;;;;;;;;11.80;99.90;;;;;;5092447;28;19956;-72
2021/05/19 07:04:20;;;;;;;;;;;11.60;99.90;;;;;;5092337;28;19999;-72
2021/05/19 07:06:47;;;;;;;;;;;11.60;99.90;;;;;;5090142;28;19915;-73
2021/05/19 07:09:12;;;;;;;;;;;11.60;99.90;;;;;;5092039;28;19915;-72
2021/05/19 07:11:37;;;;;;;;;;;11.60;99.90;;;;;;5092292;28;20006;-73
2021/05/19 07:14:05;;;;;;;;;;;11.70;99.90;;;;;;5087361;28;19961;-72
2021/05/19 07:16:33;;;;;;;;;;;11.80;99.90;;;;;;5091035;28;20067;-72
2021/05/19 07:18:58;;;;;;;;;;;11.90;99.90;;;;;;5094730;28;20380;-73
2021/05/19 07:21:24;;;;;;;;;;;12.00;99.90;;;;;;5091248;28;19946;-72
2021/05/19 07:23:50;;;;;;;;;;;12.10;99.90;;;;;;5083541;28;20335;-72
2021/05/19 07:26:16;;;;;;;;;;;12.30;99.90;;;;;;5084213;28;19915;-72
2021/05/19 07:28:41;;;;;;;;;;;12.60;99.90;;;;;;5089883;28;19912;-72
2021/05/19 07:31:07;;;;;;;;;;;13.00;99.90;;;;;;5091761;28;20426;-71
2021/05/19 07:33:32;;;;;;;;;;;13.30;99.90;;;;;;5090059;28;20365;-72
2021/05/19 07:35:58;;;;;;;;;;;13.40;99.90;;;;;;5089259;28;19959;-72
2021/05/19 07:38:24;;;;;;;;;;;13.50;99.90;;;;;;5091152;28;20041;-72
2021/05/19 07:40:49;;;;;;;;;;;13.40;99.90;;;;;;5091701;28;19932;-71
2021/05/19 07:43:16;;;;;;;;;;;13.30;99.90;;;;;;5094898;28;19911;-72
2021/05/19 07:45:42;;;;;;;;;;;13.10;99.90;;;;;;5110515;28;19912;-72
2021/05/19 07:48:10;;;;;;;;;;;13.00;99.90;;;;;;5101891;28;20333;-71
2021/05/19 07:50:36;;;;;;;;;;;12.90;99.90;;;;;;5087703;28;20326;-72
2021/05/19 07:53:01;;;;;;;;;;;12.80;99.90;;;;;;5091200;28;19908;-73
2021/05/19 07:58:00;;;;;;;;;;;13.10;99.90;;;;;;5089244;28;19959;-73
2021/05/19 08:00:42;;;;;;;;;;;13.70;99.90;;;;;;5087161;28;20195;-73
2021/05/19 08:03:08;;;;;;;;;;;14.50;99.90;;;;;;5090661;28;19912;-73
2021/05/19 08:05:33;;;;;;;;;;;15.20;99.90;;;;;;5090419;28;20430;-74
2021/05/19 08:07:59;;;;;;;;;;;15.30;99.90;;;;;;5090323;28;20369;-73
2021/05/19 08:10:25;;;;;;;;;;;15.40;99.90;;;;;;5090466;28;19957;-72
2021/05/19 08:12:51;;;;;;;;;;;15.40;99.90;;;;;;5085396;28;19953;-72
2021/05/19 08:15:17;;;;;;;;;;;15.20;99.90;;;;;;5090606;28;19953;-73
2021/05/19 08:17:42;;;;;;;;;;;15.30;99.90;;;;;;5090095;28;19912;-72
2021/05/19 08:20:08;;;;;;;;;;;15.60;99.90;;;;;;5090855;28;20018;-73
2021/05/19 08:22:34;;;;;;;;;;;15.70;99.90;;;;;;5090505;28;19934;-74
2021/05/19 08:24:59;;;;;;;;;;;15.40;99.90;;;;;;5089027;28;19912;-73
2021/05/19 08:27:25;;;;;;;;;;;15.10;99.90;;;;;;5089241;28;20007;-73
2021/05/19 08:29:52;;;;;;;;;;;14.70;99.90;;;;;;5090228;28;19912;-73
2021/05/19 08:32:18;;;;;;;;;;;14.60;99.90;;;;;;5091321;28;19916;-73
2021/05/19 08:34:44;;;;;;;;;;;14.50;99.90;;;;;;5090517;28;19908;-73
2021/05/19 08:37:09;;;;;;;;;;;14.30;99.90;;;;;;5089593;28;19995;-73
2021/05/19 08:39:35;;;;;;;;;;;14.00;99.90;;;;;;5090020;28;20004;-72
2021/05/19 08:42:01;;;;;;;;;;;14.10;99.90;;;;;;5088116;28;19914;-74
2021/05/19 08:44:27;;;;;;;;;;;14.20;99.90;;;;;;5088514;28;20396;-72
2021/05/19 08:46:56;;;;;;;;;;;14.60;99.90;;;;;;5089646;28;19915;-74
2021/05/19 08:49:22;;;;;;;;;;;15.10;99.90;;;;;;5080265;28;19916;-73
2021/05/19 08:51:47;;;;;;;;;;;15.10;99.90;;;;;;5088745;28;19915;-73
2021/05/19 08:54:15;;;;;;;;;;;15.00;99.90;;;;;;5090181;28;20269;-72
2021/05/19 08:56:44;;;;;;;;;;;14.90;99.90;;;;;;5089395;28;20304;-73
2021/05/19 08:59:10;;;;;;;;;;;14.90;99.90;;;;;;5090663;28;20507;-74
2021/05/19 09:01:40;;;;;;;;;;;15.00;99.90;;;;;;5090378;28;20013;-73
2021/05/19 09:04:07;;;;;;;;;;;15.00;99.90;;;;;;5090499;28;19908;-73
2021/05/19 09:06:32;;;;;;;;;;;14.80;99.90;;;;;;5087442;28;19989;-73
2021/05/19 09:08:58;;;;;;;;;;;14.90;99.90;;;;;;5092094;28;20372;-73
2021/05/19 09:11:23;;;;;;;;;;;15.40;99.90;;;;;;5094019;28;20007;-72
2021/05/19 09:13:49;;;;;;;;;;;15.90;99.90;;;;;;5089391;28;20342;-74
2021/05/19 09:16:28;;;;;;;;;;;16.40;99.90;;;;;;5093127;28;19908;-74
2021/05/19 09:18:55;;;;;;;;;;;17.00;99.90;;;;;;5094053;28;20266;-74
2021/05/19 09:21:43;;;;;;;;;;;17.50;98.40;;;;;;5093967;28;20003;-74
2021/05/19 09:24:10;;;;;;;;;;;18.00;96.90;;;;;;5094496;28;19912;-74
2021/05/19 09:26:58;;;;;;;;;;;17.90;95.40;;;;;;5092698;28;19908;-73
2021/05/19 09:29:24;;;;;;;;;;;18.20;97.00;;;;;;5093691;28;20049;-73
2021/05/19 09:31:53;;;;;;;;;;;18.60;96.60;;;;;;5093928;28;20008;-74
2021/05/19 09:34:23;;;;;;;;;;;18.90;94.90;;;;;;5093924;28;19908;-74
2021/05/19 09:36:48;;;;;;;;;;;19.10;94.40;;;;;;5093073;28;19908;-73
2021/05/19 09:39:14;;;;;;;;;;;19.10;93.50;;;;;;5092958;28;20384;-74
2021/05/19 09:41:39;;;;;;;;;;;18.90;93.40;;;;;;5093817;28;19912;-74
2021/05/19 09:44:06;;;;;;;;;;;18.90;93.50;;;;;;5089114;28;20428;-73
2021/05/19 09:49:23;;;;;;;;;;;18.60;91.10;;;;;;5086886;28;19916;-73
2021/05/19 09:51:53;;;;;;;;;;;18.50;92.70;;;;;;5097937;28;19912;-73
2021/05/19 09:54:25;;;;;;;;;;;18.70;91.50;;;;;;5093555;28;19915;-71
2021/05/19 09:57:10;;;;;;;;;;;19.10;91.80;;;;;;5092981;28;19909;-74
2021/05/19 09:59:37;;;;;;;;;;;19.50;92.50;;;;;;5093744;28;19971;-74
2021/05/19 10:02:03;;;;;;;;;;;19.60;90.10;;;;;;5082335;28;19912;-73
2021/05/19 10:04:40;;;;;;;;;;;19.80;89.60;;;;;;5093285;28;20276;-73
2021/05/19 10:07:12;;;;;;;;;;;19.40;84.20;;;;;;5092701;28;19919;-73
2021/05/19 10:09:38;;;;;;;;;;;18.70;83.60;;;;;;5092990;28;19909;-74
2021/05/19 10:12:04;;;;;;;;;;;18.60;86.00;;;;;;5090402;28;19908;-74
2021/05/19 10:14:30;;;;;;;;;;;18.60;80.80;;;;;;5091559;28;19912;-73
2021/05/19 10:17:01;;;;;;;;;;;19.00;78.70;;;;;;5092502;28;19912;-73
2021/05/19 10:19:28;;;;;;;;;;;19.00;71.90;;;;;;5091651;28;19958;-71
2021/05/19 10:21:55;;;;;;;;;;;18.90;74.40;;;;;;5092969;28;19966;-73
2021/05/19 10:24:23;;;;;;;;;;;19.00;77.40;;;;;;5092719;28;19951;-74
2021/05/19 10:27:09;;;;;;;;;;;19.40;82.90;;;;;;5090766;28;20404;-74
2021/05/19 10:29:48;;;;;;;;;;;19.90;78.00;;;;;;5091079;28;20009;-74
2021/05/19 10:32:19;;;;;;;;;;;20.30;71.20;;;;;;5092846;28;19908;-73
2021/05/19 10:34:45;;;;;;;;;;;20.10;75.60;;;;;;5092506;28;19915;-74
2021/05/19 10:37:26;;;;;;;;;;;20.30;76.60;;;;;;5091937;28;19908;-74
2021/05/19 10:40:17;;;;;;;;;;;20.60;70.70;;;;;;5092589;28;20089;-74
2021/05/19 10:42:44;;;;;;;;;;;20.70;70.60;;;;;;5088400;28;19919;-74
2021/05/19 10:45:15;;;;;;;;;;;20.60;70.00;;;;;;5092595;28;20167;-74
2021/05/19 10:47:41;;;;;;;;;;;20.60;66.00;;;;;;5091017;28;20408;-74
2021/05/19 10:58:52;;;;;;;;;;;20.70;76.20;;;;;;5092389;28;20395;-72
2021/05/19 11:01:36;;;;;;;;;;;20.60;68.70;;;;;;5083009;28;19990;-74
2021/05/19 11:04:28;;;;;;;;;;;19.80;73.80;;;;;;5092282;28;19916;-73
2021/05/19 11:06:56;;;;;;;;;;;19.50;72.00;;;;;;5089263;28;19908;-73
2021/05/19 11:09:22;;;;;;;;;;;19.90;74.60;;;;;;5091825;28;20332;-73
2021/05/19 11:11:48;;;;;;;;;;;20.40;64.40;;;;;;5091572;28;19947;-73
2021/05/19 11:14:35;;;;;;;;;;;20.40;60.50;;;;;;5085369;28;19908;-73
2021/05/19 11:17:13;;;;;;;;;;;20.50;64.80;;;;;;5094528;28;19908;-72
2021/05/19 11:19:39;;;;;;;;;;;21.00;59.40;;;;;;5092099;28;20418;-73
2021/05/19 11:22:06;;;;;;;;;;;21.20;51.90;;;;;;5090410;28;19916;-71
2021/05/19 11:24:46;;;;;;;;;;;21.40;57.00;;;;;;5091570;28;19999;-73
2021/05/19 11:27:14;;;;;;;;;;;21.60;60.10;;;;;;5089755;28;19931;-73
2021/05/19 11:29:40;;;;;;;;;;;21.60;60.30;;;;;;5091675;28;19912;-73
2021/05/19 11:32:05;;;;;;;;;;;21.40;63.90;;;;;;5091346;28;20288;-73
2021/05/19 11:34:31;;;;;;;;;;;20.70;65.50;;;;;;5091656;28;19908;-73
2021/05/19 11:36:58;;;;;;;;;;;20.30;63.10;;;;;;5090778;28;19954;-74
2021/05/19 11:39:24;;;;;;;;;;;19.40;65.90;;;;;;5091468;28;20021;-73
2021/05/19 11:41:50;;;;;;;;;;;19.50;65.50;;;;;;5089620;28;20006;-72
2021/05/19 11:44:32;;;;;;;;;;;19.80;60.20;;;;;;5087853;28;19912;-73
2021/05/19 11:46:57;;;;;;;;;;;19.60;58.50;;;;;;5090484;28;19986;-74
2021/05/19 11:49:23;;;;;;;;;;;19.90;59.20;;;;;;5076809;28;20046;-74
2021/05/19 11:51:48;;;;;;;;;;;20.30;62.60;;;;;;5091374;28;19999;-74
2021/05/19 11:54:14;;;;;;;;;;;20.80;65.40;;;;;;5091439;28;19989;-74
2021/05/19 11:56:41;;;;;;;;;;;21.00;64.20;;;;;;5090261;28;20440;-72
2021/05/19 11:59:17;;;;;;;;;;;21.30;65.40;;;;;;5091484;28;19931;-74
2021/05/19 12:02:18;;;;;;;;;;;21.50;64.40;;;;;;5080199;28;19908;-73
2021/05/19 12:04:44;;;;;;;;;;;21.70;63.70;;;;;;5051291;28;19913;-73
2021/05/19 12:07:09;;;;;;;;;;;21.70;61.00;;;;;;5070128;28;20045;-74
2021/05/19 12:09:39;;;;;;;;;;;21.40;62.90;;;;;;5070864;28;19908;-74
2021/05/19 12:12:07;;;;;;;;;;;21.30;65.60;;;;;;5070809;28;20003;-74
2021/05/19 12:14:32;;;;;;;;;;;21.20;64.60;;;;;;5089731;28;20045;-74
2021/05/19 12:17:00;;;;;;;;;;;21.50;58.50;;;;;;5090117;28;19950;-72
2021/05/19 12:19:27;;;;;;;;;;;21.90;58.50;;;;;;5091096;28;19915;-72
2021/05/19 12:22:03;;;;;;;;;;;22.10;63.70;;;;;;5090759;28;19916;-71
2021/05/19 12:24:29;;;;;;;;;;;22.00;62.30;;;;;;5090739;28;19908;-72
2021/05/19 12:26:55;;;;;;;;;;;21.80;59.40;;;;;;5089878;28;19915;-72
2021/05/19 12:29:43;;;;;;;;;;;21.40;59.70;;;;;;5091342;28;19953;-72
2021/05/19 12:32:11;;;;;;;;;;;21.10;59.40;;;;;;5090844;28;19915;-72
2021/05/19 12:34:37;;;;;;;;;;;20.90;61.70;;;;;;5089428;28;19908;-72
2021/05/19 12:37:02;;;;;;;;;;;20.50;58.40;;;;;;5089927;28;19912;-71
2021/05/19 12:39:29;;;;;;;;;;;20.00;59.10;;;;;;5091011;28;19908;-72
2021/05/19 12:41:57;;;;;;;;;;;19.20;62.00;;;;;;5089145;28;19912;-72
2021/05/19 12:44:31;;;;;;;;;;;18.80;59.60;;;;;;5091321;28;19909;-72
2021/05/19 12:47:01;;;;;;;;;;;18.80;58.90;;;;;;5094412;28;19962;-72
2021/05/19 12:49:28;;;;;;;;;;;19.10;65.30;;;;;;5082202;28;19908;-72
2021/05/19 12:51:55;;;;;;;;;;;19.40;59.50;;;;;;5090992;28;19938;-72
2021/05/19 12:54:23;;;;;;;;;;;19.60;61.90;;;;;;5094919;28;19908;-71
2021/05/19 12:57:12;;;;;;;;;;;19.70;57.60;;;;;;5093687;28;19978;-71
2021/05/19 12:59:58;;;;;;;;;;;19.50;58.30;;;;;;5088962;28;19908;-71
2021/05/19 13:02:29;;;;;;;;;;;19.10;65.00;;;;;;5094849;28;19912;-72
2021/05/19 13:04:55;;;;;;;;;;;19.50;65.00;;;;;;5089936;28;19994;-72
2021/05/19 13:07:22;;;;;;;;;;;19.90;59.90;;;;;;5090783;28;20099;-72
2021/05/19 13:09:53;;;;;;;;;;;20.30;67.50;;;;;;5093075;28;19908;-73
2021/05/19 13:12:28;;;;;;;;;;;20.60;64.50;;;;;;5089895;28;20007;-71
2021/05/19 13:14:56;;;;;;;;;;;20.50;57.40;;;;;;5093867;28;19908;-72
2021/05/19 13:17:22;;;;;;;;;;;20.20;59.80;;;;;;5093708;28;19908;-72
2021/05/19 13:19:58;;;;;;;;;;;20.20;61.70;;;;;;5094346;28;19954;-72
2021/05/19 13:22:25;;;;;;;;;;;20.00;59.00;;;;;;5094044;28;19919;-72
2021/05/19 13:24:51;;;;;;;;;;;19.80;58.00;;;;;;5093638;28;19919;-71
2021/05/19 13:27:25;;;;;;;;;;;19.60;61.40;;;;;;5093196;28;19908;-71
2021/05/19 13:29:51;;;;;;;;;;;19.50;63.00;;;;;;5094023;28;19916;-71
2021/05/19 13:32:22;;;;;;;;;;;19.70;67.50;;;;;;5093972;28;19915;-71
2021/05/19 13:37:13;;;;;;;;;;;20.10;62.80;;;;;;5093215;28;19920;-71
2021/05/19 13:39:39;;;;;;;;;;;20.30;65.60;;;;;;5094214;28;19908;-71
2021/05/19 13:42:04;;;;;;;;;;;20.60;61.00;;;;;;5093967;28;20440;-71
2021/05/19 13:44:30;;;;;;;;;;;20.70;60.20;;;;;;5094241;28;20414;-71
2021/05/19 13:46:57;;;;;;;;;;;20.90;56.80;;;;;;5092936;28;19912;-73
2021/05/19 13:49:26;;;;;;;;;;;20.70;60.10;;;;;;5084347;28;20006;-71
2021/05/19 13:51:58;;;;;;;;;;;20.40;58.60;;;;;;5093231;28;19915;-71
2021/05/19 13:54:28;;;;;;;;;;;20.00;61.40;;;;;;5093286;28;20151;-71
2021/05/19 13:56:53;;;;;;;;;;;19.60;60.60;;;;;;5092557;28;20003;-72
2021/05/19 13:59:22;;;;;;;;;;;19.50;60.80;;;;;;5093339;28;20006;-71
2021/05/19 14:01:48;;;;;;;;;;;19.60;61.70;;;;;;5082525;28;19908;-71
2021/05/19 14:04:15;;;;;;;;;;;19.70;63.70;;;;;;5093008;28;19915;-71
2021/05/19 14:06:41;;;;;;;;;;;19.70;62.40;;;;;;5092334;28;20300;-72
2021/05/19 14:09:08;;;;;;;;;;;19.70;64.90;;;;;;5093153;28;19908;-74
2021/05/19 14:11:36;;;;;;;;;;;20.00;64.50;;;;;;5093154;28;19915;-71
2021/05/19 14:27:29;;;;;;;;;;;16.60;80.50;;;;;;5091774;28;20053;-71
2021/05/19 14:29:55;;;;;;;;;;;16.60;80.40;;;;;;5093354;28;19961;-71
2021/05/19 14:32:20;;;;;;;;;;;16.60;81.10;;;;;;5113309;28;19916;-71
2021/05/19 14:34:47;;;;;;;;;;;16.50;81.50;;;;;;5113651;28;19976;-71
2021/05/19 15:00:45;;;;;;;;;;;15.80;81.90;;;;;;5092283;28;20007;-71
2021/05/19 15:03:10;;;;;;;;;;;15.40;82.90;;;;;;5092588;28;20011;-70
2021/05/19 15:05:38;;;;;;;;;;;15.30;85.40;;;;;;5090898;28;19908;-72
2021/05/19 15:08:04;;;;;;;;;;;15.00;84.40;;;;;;5091962;28;19935;-71
2021/05/19 15:10:29;;;;;;;;;;;14.90;86.00;;;;;;5090828;28;20417;-71
2021/05/19 15:12:55;;;;;;;;;;;14.50;85.40;;;;;;5092181;28;19938;-71
2021/05/19 15:15:20;;;;;;;;;;;14.30;87.20;;;;;;5091488;28;20416;-71
2021/05/19 15:17:46;;;;;;;;;;;14.20;87.30;;;;;;5090938;28;20323;-73